sensor_id;sensor_type;location;lat;lon;timestamp;P1;durP1;ratioP1;P2;durP2;ratioP2
37843;SDS011;63793;57.632;18.292;2023-04-24T00:01:14;10.60;;;9.35;;
37843;SDS011;63793;57.632;18.292;2023-04-24T00:03:41;12.05;;;8.50;;
37843;SDS011;63793;57.632;18.292;2023-04-24T00:06:08;8.80;;;8.00;;
37843;SDS011;63793;57.632;18.292;2023-04-24T00:08:35;10.65;;;8.55;;
37843;SDS011;63793;57.632;18.292;2023-04-24T00:11:02;12.40;;;9.95;;
37843;SDS011;63793;57.632;18.292;2023-04-24T00:13:29;10.00;;;8.98;;
37843;SDS011;63793;57.632;18.292;2023-04-24T00:15:56;10.10;;;9.10;;
37843;SDS011;63793;57.632;18.292;2023-04-24T00:18:23;11.30;;;8.73;;
37843;SDS011;63793;57.632;18.292;2023-04-24T00:20:50;10.70;;;9.68;;
37843;SDS011;63793;57.632;18.292;2023-04-24T00:23:17;15.90;;;10.90;;
37843;SDS011;63793;57.632;18.292;2023-04-24T00:25:44;11.20;;;10.05;;
37843;SDS011;63793;57.632;18.292;2023-04-24T00:28:10;11.55;;;10.07;;
37843;SDS011;63793;57.632;18.292;2023-04-24T00:30:37;12.75;;;11.13;;
37843;SDS011;63793;57.632;18.292;2023-04-24T00:33:04;12.80;;;11.52;;
37843;SDS011;63793;57.632;18.292;2023-04-24T00:35:31;15.68;;;12.35;;
37843;SDS011;63793;57.632;18.292;2023-04-24T00:37:58;12.85;;;10.70;;
37843;SDS011;63793;57.632;18.292;2023-04-24T00:40:25;11.30;;;10.10;;
37843;SDS011;63793;57.632;18.292;2023-04-24T00:42:52;11.90;;;10.73;;
37843;SDS011;63793;57.632;18.292;2023-04-24T00:45:19;14.10;;;12.07;;
37843;SDS011;63793;57.632;18.292;2023-04-24T00:47:46;11.43;;;9.70;;
37843;SDS011;63793;57.632;18.292;2023-04-24T00:50:14;14.07;;;11.45;;
37843;SDS011;63793;57.632;18.292;2023-04-24T00:52:42;11.15;;;9.68;;
37843;SDS011;63793;57.632;18.292;2023-04-24T00:55:09;10.18;;;8.88;;
37843;SDS011;63793;57.632;18.292;2023-04-24T00:57:36;10.57;;;9.13;;
37843;SDS011;63793;57.632;18.292;2023-04-24T01:00:04;10.75;;;9.75;;
37843;SDS011;63793;57.632;18.292;2023-04-24T01:02:34;9.75;;;8.55;;
37843;SDS011;63793;57.632;18.292;2023-04-24T01:05:01;9.68;;;8.77;;
37843;SDS011;63793;57.632;18.292;2023-04-24T01:07:28;11.02;;;8.95;;
37843;SDS011;63793;57.632;18.292;2023-04-24T01:09:55;11.50;;;8.75;;
37843;SDS011;63793;57.632;18.292;2023-04-24T01:12:23;9.00;;;8.10;;
37843;SDS011;63793;57.632;18.292;2023-04-24T01:14:50;8.77;;;7.97;;
37843;SDS011;63793;57.632;18.292;2023-04-24T01:17:17;8.00;;;6.10;;
37843;SDS011;63793;57.632;18.292;2023-04-24T01:19:46;12.63;;;8.07;;
37843;SDS011;63793;57.632;18.292;2023-04-24T01:22:14;7.55;;;6.75;;
37843;SDS011;63793;57.632;18.292;2023-04-24T01:24:41;7.70;;;7.00;;
37843;SDS011;63793;57.632;18.292;2023-04-24T01:27:11;7.70;;;7.00;;
37843;SDS011;63793;57.632;18.292;2023-04-24T01:29:38;8.32;;;7.45;;
37843;SDS011;63793;57.632;18.292;2023-04-24T01:32:08;8.80;;;7.22;;
37843;SDS011;63793;57.632;18.292;2023-04-24T01:34:35;7.88;;;7.07;;
37843;SDS011;63793;57.632;18.292;2023-04-24T01:37:03;8.48;;;7.57;;
37843;SDS011;63793;57.632;18.292;2023-04-24T01:39:31;8.30;;;7.60;;
37843;SDS011;63793;57.632;18.292;2023-04-24T01:41:59;8.68;;;7.78;;
37843;SDS011;63793;57.632;18.292;2023-04-24T01:44:28;8.63;;;7.80;;
37843;SDS011;63793;57.632;18.292;2023-04-24T01:46:55;8.27;;;7.47;;
37843;SDS011;63793;57.632;18.292;2023-04-24T01:49:23;9.85;;;8.85;;
37843;SDS011;63793;57.632;18.292;2023-04-24T01:51:49;9.30;;;7.95;;
37843;SDS011;63793;57.632;18.292;2023-04-24T01:54:16;14.43;;;8.15;;
37843;SDS011;63793;57.632;18.292;2023-04-24T01:56:43;9.48;;;8.52;;
37843;SDS011;63793;57.632;18.292;2023-04-24T01:59:11;10.27;;;9.23;;
37843;SDS011;63793;57.632;18.292;2023-04-24T02:01:38;12.10;;;8.75;;
37843;SDS011;63793;57.632;18.292;2023-04-24T02:04:06;10.38;;;8.82;;
37843;SDS011;63793;57.632;18.292;2023-04-24T02:06:34;10.35;;;9.32;;
37843;SDS011;63793;57.632;18.292;2023-04-24T02:09:01;9.73;;;8.60;;
37843;SDS011;63793;57.632;18.292;2023-04-24T02:11:29;9.38;;;8.48;;
37843;SDS011;63793;57.632;18.292;2023-04-24T02:13:56;12.15;;;8.85;;
37843;SDS011;63793;57.632;18.292;2023-04-24T02:16:24;10.85;;;9.70;;
37843;SDS011;63793;57.632;18.292;2023-04-24T02:18:51;10.90;;;9.80;;
37843;SDS011;63793;57.632;18.292;2023-04-24T02:21:18;10.00;;;9.00;;
37843;SDS011;63793;57.632;18.292;2023-04-24T02:23:45;13.88;;;9.57;;
37843;SDS011;63793;57.632;18.292;2023-04-24T02:26:12;10.32;;;9.23;;
37843;SDS011;63793;57.632;18.292;2023-04-24T02:28:39;9.52;;;8.63;;
37843;SDS011;63793;57.632;18.292;2023-04-24T02:31:06;10.35;;;9.35;;
37843;SDS011;63793;57.632;18.292;2023-04-24T02:33:33;11.40;;;9.60;;
37843;SDS011;63793;57.632;18.292;2023-04-24T02:36:00;10.45;;;8.75;;
37843;SDS011;63793;57.632;18.292;2023-04-24T02:38:27;9.27;;;8.13;;
37843;SDS011;63793;57.632;18.292;2023-04-24T02:40:55;11.35;;;9.80;;
37843;SDS011;63793;57.632;18.292;2023-04-24T02:43:21;10.02;;;9.02;;
37843;SDS011;63793;57.632;18.292;2023-04-24T02:45:49;9.43;;;8.40;;
37843;SDS011;63793;57.632;18.292;2023-04-24T02:48:16;11.80;;;9.05;;
37843;SDS011;63793;57.632;18.292;2023-04-24T02:50:43;9.82;;;8.82;;
37843;SDS011;63793;57.632;18.292;2023-04-24T02:53:10;9.52;;;8.50;;
37843;SDS011;63793;57.632;18.292;2023-04-24T02:55:37;10.68;;;8.75;;
37843;SDS011;63793;57.632;18.292;2023-04-24T02:58:04;11.38;;;10.27;;
37843;SDS011;63793;57.632;18.292;2023-04-24T03:00:32;10.85;;;9.48;;
37843;SDS011;63793;57.632;18.292;2023-04-24T03:02:59;9.32;;;8.38;;
37843;SDS011;63793;57.632;18.292;2023-04-24T03:05:26;13.75;;;10.20;;
37843;SDS011;63793;57.632;18.292;2023-04-24T03:07:53;12.38;;;9.05;;
37843;SDS011;63793;57.632;18.292;2023-04-24T03:10:20;12.82;;;9.88;;
37843;SDS011;63793;57.632;18.292;2023-04-24T03:12:49;10.60;;;9.05;;
37843;SDS011;63793;57.632;18.292;2023-04-24T03:15:17;11.23;;;10.13;;
37843;SDS011;63793;57.632;18.292;2023-04-24T03:17:44;12.60;;;11.07;;
37843;SDS011;63793;57.632;18.292;2023-04-24T03:20:11;13.38;;;10.57;;
37843;SDS011;63793;57.632;18.292;2023-04-24T03:22:38;13.90;;;10.45;;
37843;SDS011;63793;57.632;18.292;2023-04-24T03:25:07;14.88;;;12.10;;
37843;SDS011;63793;57.632;18.292;2023-04-24T03:27:36;14.10;;;10.00;;
37843;SDS011;63793;57.632;18.292;2023-04-24T03:30:18;11.43;;;9.15;;
37843;SDS011;63793;57.632;18.292;2023-04-24T03:32:50;12.13;;;10.68;;
37843;SDS011;63793;57.632;18.292;2023-04-24T03:35:22;10.57;;;9.48;;
37843;SDS011;63793;57.632;18.292;2023-04-24T03:37:50;12.75;;;10.75;;
37843;SDS011;63793;57.632;18.292;2023-04-24T03:40:46;11.02;;;9.88;;
37843;SDS011;63793;57.632;18.292;2023-04-24T03:43:26;9.80;;;8.50;;
37843;SDS011;63793;57.632;18.292;2023-04-24T03:45:56;12.90;;;9.07;;
37843;SDS011;63793;57.632;18.292;2023-04-24T03:48:23;10.00;;;9.10;;
37843;SDS011;63793;57.632;18.292;2023-04-24T03:50:51;11.32;;;10.13;;
37843;SDS011;63793;57.632;18.292;2023-04-24T03:53:17;12.57;;;11.35;;
37843;SDS011;63793;57.632;18.292;2023-04-24T03:55:46;9.98;;;9.00;;
37843;SDS011;63793;57.632;18.292;2023-04-24T03:58:13;10.00;;;9.00;;
37843;SDS011;63793;57.632;18.292;2023-04-24T04:00:40;16.60;;;11.00;;
37843;SDS011;63793;57.632;18.292;2023-04-24T04:03:30;9.13;;;8.23;;
37843;SDS011;63793;57.632;18.292;2023-04-24T04:05:57;11.48;;;9.50;;
37843;SDS011;63793;57.632;18.292;2023-04-24T04:08:25;12.90;;;9.25;;
37843;SDS011;63793;57.632;18.292;2023-04-24T04:10:52;10.30;;;9.10;;
37843;SDS011;63793;57.632;18.292;2023-04-24T04:13:19;10.35;;;9.18;;
37843;SDS011;63793;57.632;18.292;2023-04-24T04:15:45;14.02;;;10.52;;
37843;SDS011;63793;57.632;18.292;2023-04-24T04:18:12;10.05;;;8.10;;
37843;SDS011;63793;57.632;18.292;2023-04-24T04:20:39;16.63;;;9.68;;
37843;SDS011;63793;57.632;18.292;2023-04-24T04:23:07;10.50;;;9.45;;
37843;SDS011;63793;57.632;18.292;2023-04-24T04:25:48;15.65;;;9.05;;
37843;SDS011;63793;57.632;18.292;2023-04-24T04:28:20;18.02;;;9.63;;
37843;SDS011;63793;57.632;18.292;2023-04-24T04:30:48;15.55;;;9.43;;
37843;SDS011;63793;57.632;18.292;2023-04-24T04:33:15;11.02;;;9.35;;
37843;SDS011;63793;57.632;18.292;2023-04-24T04:35:42;12.05;;;9.38;;
37843;SDS011;63793;57.632;18.292;2023-04-24T04:38:10;18.30;;;11.90;;
37843;SDS011;63793;57.632;18.292;2023-04-24T04:40:42;15.00;;;9.00;;
37843;SDS011;63793;57.632;18.292;2023-04-24T04:43:11;11.88;;;9.25;;
37843;SDS011;63793;57.632;18.292;2023-04-24T04:45:44;11.60;;;9.60;;
37843;SDS011;63793;57.632;18.292;2023-04-24T04:48:27;16.90;;;10.50;;
37843;SDS011;63793;57.632;18.292;2023-04-24T04:50:57;17.98;;;9.55;;
37843;SDS011;63793;57.632;18.292;2023-04-24T04:53:25;11.23;;;9.32;;
37843;SDS011;63793;57.632;18.292;2023-04-24T04:55:52;15.15;;;10.85;;
37843;SDS011;63793;57.632;18.292;2023-04-24T04:58:23;12.52;;;8.55;;
37843;SDS011;63793;57.632;18.292;2023-04-24T05:00:54;16.95;;;9.10;;
37843;SDS011;63793;57.632;18.292;2023-04-24T05:03:32;10.98;;;8.10;;
37843;SDS011;63793;57.632;18.292;2023-04-24T05:06:04;14.73;;;9.50;;
37843;SDS011;63793;57.632;18.292;2023-04-24T05:08:33;17.90;;;10.07;;
37843;SDS011;63793;57.632;18.292;2023-04-24T05:11:02;21.30;;;10.80;;
37843;SDS011;63793;57.632;18.292;2023-04-24T05:13:30;18.60;;;10.18;;
37843;SDS011;63793;57.632;18.292;2023-04-24T05:16:14;13.65;;;9.80;;
37843;SDS011;63793;57.632;18.292;2023-04-24T05:18:41;21.27;;;11.38;;
37843;SDS011;63793;57.632;18.292;2023-04-24T05:21:11;13.55;;;10.27;;
37843;SDS011;63793;57.632;18.292;2023-04-24T05:23:40;13.68;;;10.93;;
37843;SDS011;63793;57.632;18.292;2023-04-24T05:26:07;16.33;;;9.55;;
37843;SDS011;63793;57.632;18.292;2023-04-24T05:28:34;12.25;;;10.60;;
37843;SDS011;63793;57.632;18.292;2023-04-24T05:31:07;19.10;;;11.30;;
37843;SDS011;63793;57.632;18.292;2023-04-24T05:33:34;16.73;;;12.98;;
37843;SDS011;63793;57.632;18.292;2023-04-24T05:36:01;15.13;;;11.35;;
37843;SDS011;63793;57.632;18.292;2023-04-24T05:38:28;15.52;;;11.00;;
37843;SDS011;63793;57.632;18.292;2023-04-24T05:40:55;22.58;;;15.25;;
37843;SDS011;63793;57.632;18.292;2023-04-24T05:43:22;15.38;;;11.95;;
37843;SDS011;63793;57.632;18.292;2023-04-24T05:45:49;20.15;;;13.43;;
37843;SDS011;63793;57.632;18.292;2023-04-24T05:48:17;18.85;;;12.27;;
37843;SDS011;63793;57.632;18.292;2023-04-24T05:50:43;17.08;;;12.82;;
37843;SDS011;63793;57.632;18.292;2023-04-24T05:53:11;18.80;;;15.38;;
37843;SDS011;63793;57.632;18.292;2023-04-24T05:55:37;18.13;;;14.00;;
37843;SDS011;63793;57.632;18.292;2023-04-24T05:58:05;20.58;;;14.82;;
37843;SDS011;63793;57.632;18.292;2023-04-24T06:00:34;28.38;;;13.73;;
37843;SDS011;63793;57.632;18.292;2023-04-24T06:03:05;14.82;;;11.07;;
37843;SDS011;63793;57.632;18.292;2023-04-24T06:05:33;14.63;;;11.05;;
37843;SDS011;63793;57.632;18.292;2023-04-24T06:08:02;15.15;;;11.23;;
37843;SDS011;63793;57.632;18.292;2023-04-24T06:10:33;22.42;;;13.38;;
37843;SDS011;63793;57.632;18.292;2023-04-24T06:13:00;28.02;;;12.73;;
37843;SDS011;63793;57.632;18.292;2023-04-24T06:15:29;58.67;;;15.43;;
37843;SDS011;63793;57.632;18.292;2023-04-24T06:18:16;56.17;;;16.02;;
37843;SDS011;63793;57.632;18.292;2023-04-24T06:20:44;68.85;;;18.35;;
37843;SDS011;63793;57.632;18.292;2023-04-24T06:23:12;40.20;;;13.85;;
37843;SDS011;63793;57.632;18.292;2023-04-24T06:25:38;43.00;;;16.92;;
37843;SDS011;63793;57.632;18.292;2023-04-24T06:28:05;45.72;;;13.32;;
37843;SDS011;63793;57.632;18.292;2023-04-24T06:30:32;37.28;;;14.45;;
37843;SDS011;63793;57.632;18.292;2023-04-24T06:32:59;32.65;;;11.75;;
37843;SDS011;63793;57.632;18.292;2023-04-24T06:35:44;50.63;;;15.43;;
37843;SDS011;63793;57.632;18.292;2023-04-24T06:38:11;30.50;;;12.20;;
37843;SDS011;63793;57.632;18.292;2023-04-24T06:40:38;24.55;;;11.70;;
37843;SDS011;63793;57.632;18.292;2023-04-24T06:43:05;42.78;;;15.82;;
37843;SDS011;63793;57.632;18.292;2023-04-24T06:45:32;44.58;;;13.93;;
37843;SDS011;63793;57.632;18.292;2023-04-24T06:47:59;37.20;;;13.32;;
37843;SDS011;63793;57.632;18.292;2023-04-24T06:50:26;32.63;;;13.35;;
37843;SDS011;63793;57.632;18.292;2023-04-24T06:52:53;61.45;;;14.73;;
37843;SDS011;63793;57.632;18.292;2023-04-24T06:55:20;35.90;;;14.10;;
37843;SDS011;63793;57.632;18.292;2023-04-24T06:57:46;24.48;;;13.23;;
37843;SDS011;63793;57.632;18.292;2023-04-24T07:00:13;14.63;;;10.15;;
37843;SDS011;63793;57.632;18.292;2023-04-24T07:02:40;50.08;;;13.93;;
37843;SDS011;63793;57.632;18.292;2023-04-24T07:05:07;15.77;;;11.77;;
37843;SDS011;63793;57.632;18.292;2023-04-24T07:07:34;13.32;;;8.82;;
37843;SDS011;63793;57.632;18.292;2023-04-24T07:10:04;15.75;;;9.45;;
37843;SDS011;63793;57.632;18.292;2023-04-24T07:12:31;14.52;;;10.02;;
37843;SDS011;63793;57.632;18.292;2023-04-24T07:14:59;22.45;;;12.48;;
37843;SDS011;63793;57.632;18.292;2023-04-24T07:17:26;13.07;;;9.93;;
37843;SDS011;63793;57.632;18.292;2023-04-24T07:19:53;15.63;;;9.63;;
37843;SDS011;63793;57.632;18.292;2023-04-24T07:22:20;11.95;;;8.60;;
37843;SDS011;63793;57.632;18.292;2023-04-24T07:24:48;11.32;;;8.75;;
37843;SDS011;63793;57.632;18.292;2023-04-24T07:27:15;11.20;;;9.63;;
37843;SDS011;63793;57.632;18.292;2023-04-24T07:29:42;12.68;;;10.10;;
37843;SDS011;63793;57.632;18.292;2023-04-24T07:32:10;10.75;;;9.63;;
37843;SDS011;63793;57.632;18.292;2023-04-24T07:34:37;14.98;;;10.63;;
37843;SDS011;63793;57.632;18.292;2023-04-24T07:37:04;13.07;;;9.45;;
37843;SDS011;63793;57.632;18.292;2023-04-24T07:39:31;11.18;;;9.93;;
37843;SDS011;63793;57.632;18.292;2023-04-24T07:41:58;12.13;;;9.65;;
37843;SDS011;63793;57.632;18.292;2023-04-24T07:44:25;11.90;;;9.90;;
37843;SDS011;63793;57.632;18.292;2023-04-24T07:46:52;15.07;;;11.43;;
37843;SDS011;63793;57.632;18.292;2023-04-24T07:49:19;15.43;;;10.70;;
37843;SDS011;63793;57.632;18.292;2023-04-24T07:51:46;11.90;;;10.07;;
37843;SDS011;63793;57.632;18.292;2023-04-24T07:54:13;22.63;;;11.93;;
37843;SDS011;63793;57.632;18.292;2023-04-24T07:56:40;24.33;;;11.98;;
37843;SDS011;63793;57.632;18.292;2023-04-24T07:59:09;15.43;;;12.30;;
37843;SDS011;63793;57.632;18.292;2023-04-24T08:01:37;14.27;;;9.45;;
37843;SDS011;63793;57.632;18.292;2023-04-24T08:04:04;30.30;;;12.52;;
37843;SDS011;63793;57.632;18.292;2023-04-24T08:06:31;17.35;;;12.18;;
37843;SDS011;63793;57.632;18.292;2023-04-24T08:08:59;14.00;;;11.38;;
37843;SDS011;63793;57.632;18.292;2023-04-24T08:11:26;13.27;;;11.13;;
37843;SDS011;63793;57.632;18.292;2023-04-24T08:13:53;14.25;;;10.30;;
37843;SDS011;63793;57.632;18.292;2023-04-24T08:16:21;14.45;;;10.70;;
37843;SDS011;63793;57.632;18.292;2023-04-24T08:18:50;13.75;;;9.55;;
37843;SDS011;63793;57.632;18.292;2023-04-24T08:21:17;18.05;;;10.48;;
37843;SDS011;63793;57.632;18.292;2023-04-24T08:23:45;14.30;;;10.98;;
37843;SDS011;63793;57.632;18.292;2023-04-24T08:26:13;14.00;;;11.20;;
37843;SDS011;63793;57.632;18.292;2023-04-24T08:28:40;16.80;;;12.18;;
37843;SDS011;63793;57.632;18.292;2023-04-24T08:31:07;17.70;;;10.65;;
37843;SDS011;63793;57.632;18.292;2023-04-24T08:33:34;12.90;;;11.50;;
37843;SDS011;63793;57.632;18.292;2023-04-24T08:36:04;20.73;;;12.85;;
37843;SDS011;63793;57.632;18.292;2023-04-24T08:38:32;13.70;;;10.05;;
37843;SDS011;63793;57.632;18.292;2023-04-24T08:41:00;13.73;;;11.35;;
37843;SDS011;63793;57.632;18.292;2023-04-24T08:43:28;12.85;;;10.43;;
37843;SDS011;63793;57.632;18.292;2023-04-24T08:45:55;14.00;;;9.80;;
37843;SDS011;63793;57.632;18.292;2023-04-24T08:48:23;13.35;;;9.93;;
37843;SDS011;63793;57.632;18.292;2023-04-24T08:50:57;10.77;;;9.35;;
37843;SDS011;63793;57.632;18.292;2023-04-24T08:53:25;15.27;;;10.82;;
37843;SDS011;63793;57.632;18.292;2023-04-24T08:55:54;16.17;;;10.30;;
37843;SDS011;63793;57.632;18.292;2023-04-24T08:58:22;14.07;;;10.15;;
37843;SDS011;63793;57.632;18.292;2023-04-24T09:00:56;13.82;;;10.82;;
37843;SDS011;63793;57.632;18.292;2023-04-24T09:03:24;13.30;;;10.52;;
37843;SDS011;63793;57.632;18.292;2023-04-24T09:05:53;13.52;;;9.98;;
37843;SDS011;63793;57.632;18.292;2023-04-24T09:08:22;13.23;;;10.70;;
37843;SDS011;63793;57.632;18.292;2023-04-24T09:10:51;13.13;;;10.00;;
37843;SDS011;63793;57.632;18.292;2023-04-24T09:13:19;14.95;;;11.82;;
37843;SDS011;63793;57.632;18.292;2023-04-24T09:15:46;15.85;;;11.80;;
37843;SDS011;63793;57.632;18.292;2023-04-24T09:18:13;16.40;;;10.80;;
37843;SDS011;63793;57.632;18.292;2023-04-24T09:23:28;19.83;;;11.00;;
37843;SDS011;63793;57.632;18.292;2023-04-24T09:25:57;17.10;;;11.77;;
37843;SDS011;63793;57.632;18.292;2023-04-24T09:28:28;15.48;;;11.18;;
37843;SDS011;63793;57.632;18.292;2023-04-24T09:31:03;16.45;;;12.23;;
37843;SDS011;63793;57.632;18.292;2023-04-24T09:33:30;16.58;;;12.15;;
37843;SDS011;63793;57.632;18.292;2023-04-24T09:35:57;22.05;;;13.70;;
37843;SDS011;63793;57.632;18.292;2023-04-24T09:38:35;18.75;;;11.35;;
37843;SDS011;63793;57.632;18.292;2023-04-24T09:41:04;13.73;;;11.82;;
37843;SDS011;63793;57.632;18.292;2023-04-24T09:43:34;13.35;;;11.82;;
37843;SDS011;63793;57.632;18.292;2023-04-24T09:46:05;17.30;;;12.52;;
37843;SDS011;63793;57.632;18.292;2023-04-24T09:48:35;17.35;;;12.00;;
37843;SDS011;63793;57.632;18.292;2023-04-24T09:51:04;14.13;;;11.23;;
37843;SDS011;63793;57.632;18.292;2023-04-24T09:53:37;17.40;;;12.10;;
37843;SDS011;63793;57.632;18.292;2023-04-24T09:56:10;13.90;;;11.25;;
37843;SDS011;63793;57.632;18.292;2023-04-24T09:58:39;16.92;;;10.73;;
37843;SDS011;63793;57.632;18.292;2023-04-24T10:01:06;16.38;;;11.10;;
37843;SDS011;63793;57.632;18.292;2023-04-24T10:03:33;14.43;;;11.60;;
37843;SDS011;63793;57.632;18.292;2023-04-24T10:06:03;12.73;;;10.13;;
37843;SDS011;63793;57.632;18.292;2023-04-24T10:08:36;14.05;;;10.93;;
37843;SDS011;63793;57.632;18.292;2023-04-24T10:11:04;13.63;;;11.02;;
37843;SDS011;63793;57.632;18.292;2023-04-24T10:13:31;15.75;;;10.93;;
37843;SDS011;63793;57.632;18.292;2023-04-24T10:15:59;15.75;;;11.18;;
37843;SDS011;63793;57.632;18.292;2023-04-24T10:18:28;16.98;;;10.95;;
37843;SDS011;63793;57.632;18.292;2023-04-24T10:20:56;11.63;;;9.98;;
37843;SDS011;63793;57.632;18.292;2023-04-24T10:23:24;19.95;;;12.50;;
37843;SDS011;63793;57.632;18.292;2023-04-24T10:25:52;16.50;;;10.05;;
37843;SDS011;63793;57.632;18.292;2023-04-24T10:28:19;14.95;;;11.52;;
37843;SDS011;63793;57.632;18.292;2023-04-24T10:30:48;17.60;;;11.27;;
37843;SDS011;63793;57.632;18.292;2023-04-24T10:33:16;16.08;;;10.32;;
37843;SDS011;63793;57.632;18.292;2023-04-24T10:35:44;13.25;;;11.32;;
37843;SDS011;63793;57.632;18.292;2023-04-24T10:38:24;11.65;;;9.60;;
37843;SDS011;63793;57.632;18.292;2023-04-24T10:40:57;12.45;;;10.25;;
37843;SDS011;63793;57.632;18.292;2023-04-24T10:43:42;20.50;;;12.38;;
37843;SDS011;63793;57.632;18.292;2023-04-24T10:46:09;13.32;;;11.93;;
37843;SDS011;63793;57.632;18.292;2023-04-24T10:48:41;12.43;;;10.80;;
37843;SDS011;63793;57.632;18.292;2023-04-24T10:51:12;12.68;;;11.32;;
37843;SDS011;63793;57.632;18.292;2023-04-24T10:53:40;14.48;;;10.80;;
37843;SDS011;63793;57.632;18.292;2023-04-24T10:56:08;11.55;;;10.30;;
37843;SDS011;63793;57.632;18.292;2023-04-24T10:58:41;11.20;;;10.07;;
37843;SDS011;63793;57.632;18.292;2023-04-24T11:01:25;27.50;;;13.30;;
37843;SDS011;63793;57.632;18.292;2023-04-24T11:03:57;14.25;;;10.65;;
37843;SDS011;63793;57.632;18.292;2023-04-24T11:06:37;12.73;;;11.20;;
37843;SDS011;63793;57.632;18.292;2023-04-24T11:11:32;18.02;;;11.95;;
37843;SDS011;63793;57.632;18.292;2023-04-24T11:14:01;12.63;;;10.98;;
37843;SDS011;63793;57.632;18.292;2023-04-24T11:16:33;14.05;;;11.35;;
37843;SDS011;63793;57.632;18.292;2023-04-24T11:21:47;22.50;;;12.23;;
37843;SDS011;63793;57.632;18.292;2023-04-24T11:26:53;27.38;;;11.05;;
37843;SDS011;63793;57.632;18.292;2023-04-24T11:30:10;25.40;;;11.48;;
37843;SDS011;63793;57.632;18.292;2023-04-24T11:32:16;16.67;;;11.15;;
37843;SDS011;63793;57.632;18.292;2023-04-24T11:34:50;19.10;;;10.88;;
37843;SDS011;63793;57.632;18.292;2023-04-24T11:37:18;14.20;;;10.90;;
37843;SDS011;63793;57.632;18.292;2023-04-24T11:39:45;13.18;;;10.18;;
37843;SDS011;63793;57.632;18.292;2023-04-24T11:42:14;15.30;;;10.85;;
37843;SDS011;63793;57.632;18.292;2023-04-24T11:44:42;18.88;;;10.32;;
37843;SDS011;63793;57.632;18.292;2023-04-24T11:47:09;14.90;;;10.60;;
37843;SDS011;63793;57.632;18.292;2023-04-24T11:49:36;22.83;;;10.55;;
37843;SDS011;63793;57.632;18.292;2023-04-24T11:52:04;13.98;;;9.65;;
37843;SDS011;63793;57.632;18.292;2023-04-24T11:54:31;12.98;;;9.70;;
37843;SDS011;63793;57.632;18.292;2023-04-24T11:56:58;9.30;;;7.88;;
37843;SDS011;63793;57.632;18.292;2023-04-24T11:59:26;15.90;;;10.13;;
37843;SDS011;63793;57.632;18.292;2023-04-24T12:01:53;19.48;;;10.82;;
37843;SDS011;63793;57.632;18.292;2023-04-24T12:04:19;15.48;;;9.55;;
37843;SDS011;63793;57.632;18.292;2023-04-24T12:07:02;21.83;;;10.88;;
37843;SDS011;63793;57.632;18.292;2023-04-24T12:09:46;23.77;;;9.15;;
37843;SDS011;63793;57.632;18.292;2023-04-24T12:12:17;19.10;;;8.98;;
37843;SDS011;63793;57.632;18.292;2023-04-24T12:14:44;6.40;;;5.78;;
37843;SDS011;63793;57.632;18.292;2023-04-24T12:17:16;3.45;;;3.15;;
37843;SDS011;63793;57.632;18.292;2023-04-24T12:19:47;3.22;;;2.85;;
37843;SDS011;63793;57.632;18.292;2023-04-24T12:22:14;4.65;;;3.10;;
37843;SDS011;63793;57.632;18.292;2023-04-24T12:24:57;6.88;;;3.55;;
37843;SDS011;63793;57.632;18.292;2023-04-24T12:27:29;5.47;;;3.42;;
37843;SDS011;63793;57.632;18.292;2023-04-24T12:29:58;3.63;;;3.33;;
37843;SDS011;63793;57.632;18.292;2023-04-24T12:32:26;3.90;;;3.20;;
37843;SDS011;63793;57.632;18.292;2023-04-24T12:34:54;7.05;;;3.03;;
37843;SDS011;63793;57.632;18.292;2023-04-24T12:37:24;2.83;;;2.63;;
37843;SDS011;63793;57.632;18.292;2023-04-24T12:42:30;3.10;;;2.80;;
37843;SDS011;63793;57.632;18.292;2023-04-24T12:45:02;2.75;;;1.92;;
37843;SDS011;63793;57.632;18.292;2023-04-24T12:47:31;2.08;;;1.70;;
37843;SDS011;63793;57.632;18.292;2023-04-24T12:49:59;8.63;;;2.45;;
37843;SDS011;63793;57.632;18.292;2023-04-24T12:52:28;2.47;;;1.88;;
37843;SDS011;63793;57.632;18.292;2023-04-24T12:54:57;4.20;;;2.33;;
37843;SDS011;63793;57.632;18.292;2023-04-24T12:57:25;7.28;;;5.40;;
37843;SDS011;63793;57.632;18.292;2023-04-24T12:59:57;13.10;;;8.10;;
37843;SDS011;63793;57.632;18.292;2023-04-24T13:02:25;9.75;;;8.68;;
37843;SDS011;63793;57.632;18.292;2023-04-24T13:04:53;9.63;;;7.68;;
37843;SDS011;63793;57.632;18.292;2023-04-24T13:07:20;13.48;;;8.95;;
37843;SDS011;63793;57.632;18.292;2023-04-24T13:09:48;16.17;;;10.02;;
37843;SDS011;63793;57.632;18.292;2023-04-24T13:12:16;22.67;;;10.25;;
37843;SDS011;63793;57.632;18.292;2023-04-24T13:14:44;9.60;;;8.60;;
37843;SDS011;63793;57.632;18.292;2023-04-24T13:17:11;13.52;;;9.77;;
37843;SDS011;63793;57.632;18.292;2023-04-24T13:19:40;14.23;;;9.35;;
37843;SDS011;63793;57.632;18.292;2023-04-24T13:22:09;18.17;;;11.03;;
37843;SDS011;63793;57.632;18.292;2023-04-24T13:24:37;10.38;;;8.82;;
37843;SDS011;63793;57.632;18.292;2023-04-24T13:27:07;11.93;;;8.70;;
37843;SDS011;63793;57.632;18.292;2023-04-24T13:29:35;10.00;;;8.38;;
37843;SDS011;63793;57.632;18.292;2023-04-24T13:32:02;8.77;;;8.02;;
37843;SDS011;63793;57.632;18.292;2023-04-24T13:34:29;9.23;;;8.30;;
37843;SDS011;63793;57.632;18.292;2023-04-24T13:36:57;11.77;;;9.00;;
37843;SDS011;63793;57.632;18.292;2023-04-24T13:39:25;6.85;;;6.25;;
37843;SDS011;63793;57.632;18.292;2023-04-24T13:41:53;10.20;;;7.43;;
37843;SDS011;63793;57.632;18.292;2023-04-24T13:44:20;7.93;;;6.85;;
37843;SDS011;63793;57.632;18.292;2023-04-24T13:46:49;9.32;;;7.82;;
37843;SDS011;63793;57.632;18.292;2023-04-24T13:49:18;7.93;;;7.13;;
37843;SDS011;63793;57.632;18.292;2023-04-24T13:51:45;8.95;;;6.93;;
37843;SDS011;63793;57.632;18.292;2023-04-24T13:54:12;8.25;;;6.63;;
37843;SDS011;63793;57.632;18.292;2023-04-24T13:56:40;12.52;;;7.97;;
37843;SDS011;63793;57.632;18.292;2023-04-24T13:59:07;10.00;;;6.38;;
37843;SDS011;63793;57.632;18.292;2023-04-24T14:01:34;9.40;;;7.40;;
37843;SDS011;63793;57.632;18.292;2023-04-24T14:04:02;10.00;;;7.43;;
37843;SDS011;63793;57.632;18.292;2023-04-24T14:06:29;12.52;;;7.80;;
37843;SDS011;63793;57.632;18.292;2023-04-24T14:08:56;9.30;;;7.18;;
37843;SDS011;63793;57.632;18.292;2023-04-24T14:11:23;8.48;;;7.68;;
37843;SDS011;63793;57.632;18.292;2023-04-24T14:13:50;7.93;;;7.07;;
37843;SDS011;63793;57.632;18.292;2023-04-24T14:16:17;8.18;;;6.78;;
37843;SDS011;63793;57.632;18.292;2023-04-24T14:18:44;10.40;;;8.10;;
37843;SDS011;63793;57.632;18.292;2023-04-24T14:21:11;9.57;;;8.15;;
37843;SDS011;63793;57.632;18.292;2023-04-24T14:23:38;8.45;;;7.57;;
37843;SDS011;63793;57.632;18.292;2023-04-24T14:26:04;8.35;;;7.55;;
37843;SDS011;63793;57.632;18.292;2023-04-24T14:28:32;9.10;;;7.50;;
37843;SDS011;63793;57.632;18.292;2023-04-24T14:30:59;11.85;;;8.85;;
37843;SDS011;63793;57.632;18.292;2023-04-24T14:33:25;9.35;;;8.43;;
37843;SDS011;63793;57.632;18.292;2023-04-24T14:35:52;10.70;;;9.43;;
37843;SDS011;63793;57.632;18.292;2023-04-24T14:38:19;7.70;;;7.00;;
37843;SDS011;63793;57.632;18.292;2023-04-24T14:40:48;14.20;;;7.47;;